createdAt,value
2022-11-28T00:01:34.243Z,2.85
2022-11-28T00:04:02.467Z,2.68
2022-11-28T00:06:29.768Z,2.67
2022-11-28T00:09:00.814Z,2.82
2022-11-28T00:11:27.955Z,2.91
2022-11-28T00:13:55.952Z,2.94
2022-11-28T00:16:24.882Z,2.87
2022-11-28T00:18:55.105Z,2.82
2022-11-28T00:21:23.780Z,2.80
2022-11-28T00:23:52.182Z,2.75
2022-11-28T00:26:28.300Z,2.84
2022-11-28T00:28:57.137Z,2.75
2022-11-28T00:31:31.994Z,2.92
2022-11-28T00:34:01.755Z,2.85
2022-11-28T00:36:31.283Z,2.79
2022-11-28T00:38:58.429Z,2.83
2022-11-28T00:41:29.392Z,2.69
2022-11-28T00:43:57.416Z,2.72
2022-11-28T00:46:25.586Z,2.84
2022-11-28T00:48:53.918Z,2.81
2022-11-28T00:51:28.281Z,2.73
2022-11-28T00:53:59.430Z,2.60
2022-11-28T00:56:36.629Z,2.66
2022-11-28T00:59:04.692Z,2.72
2022-11-28T01:01:39.526Z,2.73
2022-11-28T01:04:10.768Z,2.72
2022-11-28T01:06:45.100Z,2.83
2022-11-28T01:09:30.411Z,2.61
2022-11-28T01:11:57.727Z,2.61
2022-11-28T01:14:26.385Z,2.65
2022-11-28T01:16:53.984Z,2.63
2022-11-28T01:19:21.392Z,2.61
2022-11-28T01:21:48.925Z,2.49
2022-11-28T01:24:16.775Z,2.56
2022-11-28T01:26:44.673Z,2.62
2022-11-28T01:29:12.029Z,2.52
2022-11-28T01:31:39.923Z,2.57
2022-11-28T01:34:07.164Z,2.53
2022-11-28T01:36:34.346Z,2.57
2022-11-28T01:39:01.715Z,2.54
2022-11-28T01:41:29.476Z,2.58
2022-11-28T01:44:03.620Z,2.59
2022-11-28T01:46:32.001Z,2.55
2022-11-28T01:49:30.234Z,2.55
2022-11-28T01:52:09.863Z,2.66
2022-11-28T01:54:38.542Z,2.54
2022-11-28T01:57:12.954Z,2.58
2022-11-28T01:59:56.638Z,2.46
2022-11-28T02:02:34.928Z,2.47
2022-11-28T02:05:02.695Z,2.52
2022-11-28T02:07:29.935Z,2.50
2022-11-28T02:09:57.619Z,2.38
2022-11-28T02:12:55.340Z,2.55
2022-11-28T02:15:48.578Z,2.60
2022-11-28T02:18:38.184Z,2.55
2022-11-28T02:21:26.300Z,2.43
2022-11-28T02:24:40.891Z,2.30
2022-11-28T02:27:59.395Z,2.30
2022-11-28T02:31:18.616Z,2.19
2022-11-28T02:33:59.924Z,2.16
2022-11-28T02:36:35.765Z,2.06
2022-11-28T02:39:13.935Z,1.98
2022-11-28T02:41:57.969Z,1.89
2022-11-28T02:44:47.419Z,1.72
2022-11-28T02:47:57.667Z,1.70
2022-11-28T02:50:34.027Z,1.60
2022-11-28T02:53:19.027Z,1.49
2022-11-28T02:55:46.321Z,1.40
2022-11-28T02:58:13.614Z,1.29
2022-11-28T03:00:44.177Z,1.15
2022-11-28T03:03:54.109Z,1.15
2022-11-28T03:06:30.358Z,1.03
2022-11-28T03:09:18.810Z,0.89
2022-11-28T03:12:13.671Z,0.87
2022-11-28T03:14:57.309Z,0.76
2022-11-28T03:17:42.574Z,0.86
2022-11-28T03:20:15.401Z,0.94
2022-11-28T03:23:18.511Z,0.81
2022-11-28T03:25:58.916Z,0.72
2022-11-28T03:29:01.993Z,0.75
2022-11-28T03:32:05.652Z,0.59
2022-11-28T03:34:39.716Z,0.47
2022-11-28T03:37:21.003Z,0.43
2022-11-28T03:39:58.582Z,0.34
2022-11-28T03:42:31.647Z,0.44
2022-11-28T03:45:22.401Z,0.33
2022-11-28T03:48:03.194Z,0.22
2022-11-28T03:51:06.739Z,0.17
2022-11-28T03:53:49.637Z,0.09
2022-11-28T03:56:44.298Z,0.12
2022-11-28T03:59:18.980Z,0.05
2022-11-28T04:02:08.018Z,0.03
2022-11-28T04:05:02.911Z,0.04
2022-11-28T04:07:32.968Z,-0.01
2022-11-28T04:10:32.643Z,-0.02
2022-11-28T04:13:27.258Z,-0.10
2022-11-28T04:16:01.335Z,-0.01
2022-11-28T04:18:58.644Z,-0.07
2022-11-28T04:22:04.089Z,-0.10
2022-11-28T04:24:46.007Z,-0.03
2022-11-28T04:27:20.569Z,-0.06
2022-11-28T04:29:54.743Z,-0.14
2022-11-28T04:32:25.085Z,-0.08
2022-11-28T04:35:05.480Z,-0.11
2022-11-28T04:37:35.153Z,-0.18
2022-11-28T04:40:03.004Z,-0.18
2022-11-28T04:42:44.997Z,-0.20
2022-11-28T04:45:25.356Z,-0.20
2022-11-28T04:47:53.086Z,-0.19
2022-11-28T04:50:23.647Z,-0.23
2022-11-28T04:53:03.291Z,-0.21
2022-11-28T04:55:48.999Z,-0.16
2022-11-28T04:58:43.653Z,-0.22
2022-11-28T05:01:18.226Z,-0.38
2022-11-28T05:03:45.872Z,-0.35
2022-11-28T05:06:27.802Z,-0.38
2022-11-28T05:08:55.739Z,-0.42
2022-11-28T05:11:23.138Z,-0.41
2022-11-28T05:13:50.400Z,-0.42
2022-11-28T05:16:18.270Z,-0.33
2022-11-28T05:18:46.437Z,-0.38
2022-11-28T05:21:13.887Z,-0.44
2022-11-28T05:23:44.625Z,-0.49
2022-11-28T05:26:14.034Z,-0.46
2022-11-28T05:28:45.561Z,-0.52
2022-11-28T05:31:14.106Z,-0.51
2022-11-28T05:33:41.451Z,-0.59
2022-11-28T05:36:13.537Z,-0.52
2022-11-28T05:38:42.199Z,-0.45
2022-11-28T05:41:17.896Z,-0.38
2022-11-28T05:43:45.101Z,-0.45
2022-11-28T05:46:12.529Z,-0.50
2022-11-28T05:48:39.763Z,-0.55
2022-11-28T05:51:07.346Z,-0.57
2022-11-28T05:53:34.652Z,-0.50
2022-11-28T05:56:08.874Z,-0.50
2022-11-28T05:58:37.284Z,-0.43
2022-11-28T06:01:16.019Z,-0.25
2022-11-28T06:03:44.019Z,-0.33
2022-11-28T06:06:21.213Z,-0.25
2022-11-28T06:08:51.638Z,-0.11
2022-11-28T06:11:21.669Z,-0.04
2022-11-28T06:13:50.132Z,-0.05
2022-11-28T06:16:27.934Z,0.08
2022-11-28T06:18:58.229Z,0.11
2022-11-28T06:21:27.160Z,0.18
2022-11-28T06:23:54.908Z,0.30
2022-11-28T06:26:24.965Z,0.34
2022-11-28T06:28:52.379Z,0.47
2022-11-28T06:31:24.105Z,0.45
2022-11-28T06:33:52.005Z,0.39
2022-11-28T06:36:20.353Z,0.46
2022-11-28T06:38:48.639Z,0.52
2022-11-28T06:41:20.748Z,0.53
2022-11-28T06:43:47.934Z,0.63
2022-11-28T06:46:21.410Z,0.68
2022-11-28T06:48:51.579Z,0.73
2022-11-28T06:51:20.410Z,0.80
2022-11-28T06:53:48.135Z,0.96
2022-11-28T06:56:19.628Z,1.03
2022-11-28T06:58:48.078Z,1.26
2022-11-28T07:01:20.171Z,1.37
2022-11-28T07:03:48.551Z,1.48
2022-11-28T07:06:19.186Z,1.64
2022-11-28T07:08:47.621Z,1.86
2022-11-28T07:11:19.874Z,2.07
2022-11-28T07:13:49.021Z,2.31
2022-11-28T07:16:19.657Z,2.49
2022-11-28T07:18:47.786Z,2.89
2022-11-28T07:21:15.669Z,3.37
2022-11-28T07:23:44.296Z,3.55
2022-11-28T07:26:14.223Z,3.75
2022-11-28T07:28:42.436Z,3.99
2022-11-28T07:31:15.949Z,4.38
2022-11-28T07:33:46.562Z,4.73
2022-11-28T07:36:23.856Z,4.88
2022-11-28T07:38:56.368Z,5.41
2022-11-28T07:41:26.741Z,5.49
2022-11-28T07:44:00.141Z,5.09
2022-11-28T07:46:28.877Z,6.12
2022-11-28T07:48:56.658Z,6.95
2022-11-28T07:51:30.795Z,8.46
2022-11-28T07:53:59.003Z,9.94
2022-11-28T07:56:50.203Z,10.98
2022-11-28T07:59:17.812Z,11.92
2022-11-28T08:01:45.205Z,10.46
2022-11-28T08:04:12.521Z,9.58
2022-11-28T08:06:42.207Z,8.16
2022-11-28T08:09:12.164Z,7.37
2022-11-28T08:11:40.075Z,7.18
2022-11-28T08:14:07.831Z,6.88
2022-11-28T08:16:35.233Z,7.48
2022-11-28T08:19:03.227Z,9.53
2022-11-28T08:21:34.470Z,9.85
2022-11-28T08:24:03.423Z,8.51
2022-11-28T08:26:32.940Z,8.46
2022-11-28T08:29:02.504Z,8.34
2022-11-28T08:31:37.198Z,8.36
2022-11-28T08:34:09.789Z,8.25
2022-11-28T08:36:38.112Z,8.58
2022-11-28T08:41:59.674Z,10.12
2022-11-28T08:44:30.243Z,9.37
2022-11-28T08:46:57.886Z,8.95
2022-11-28T08:49:25.053Z,8.34
2022-11-28T08:51:52.315Z,8.22
2022-11-28T08:54:19.606Z,7.81
2022-11-28T08:56:48.397Z,7.37
2022-11-28T08:59:16.073Z,7.35
2022-11-28T09:01:43.450Z,7.50
2022-11-28T09:04:11.023Z,7.03
2022-11-28T09:06:41.439Z,6.89
2022-11-28T09:09:09.241Z,7.03
2022-11-28T09:11:37.076Z,6.76
2022-11-28T09:14:04.638Z,7.28
2022-11-28T09:16:32.023Z,7.21
2022-11-28T09:18:59.617Z,6.52
2022-11-28T09:21:27.182Z,6.62
2022-11-28T09:23:56.466Z,6.72
2022-11-28T09:26:25.285Z,6.75
2022-11-28T09:28:53.729Z,6.63
2022-11-28T09:31:21.239Z,6.45
2022-11-28T09:33:49.561Z,6.31
2022-11-28T09:36:22.420Z,6.30
2022-11-28T09:38:50.052Z,6.20
2022-11-28T09:41:58.346Z,6.51
2022-11-28T09:45:05.659Z,6.22
2022-11-28T09:47:37.001Z,6.44
2022-11-28T09:50:26.745Z,6.11
2022-11-28T09:53:07.788Z,6.25
2022-11-28T09:55:50.641Z,6.21
2022-11-28T09:58:45.823Z,6.39
2022-11-28T10:01:18.025Z,6.78
2022-11-28T10:04:27.910Z,6.69
2022-11-28T10:07:19.520Z,6.62
2022-11-28T10:10:23.415Z,6.27
2022-11-28T10:13:10.300Z,6.17
2022-11-28T10:16:26.188Z,6.48
2022-11-28T10:19:04.047Z,6.58
2022-11-28T10:21:49.387Z,6.47
2022-11-28T10:24:31.824Z,6.55
2022-11-28T10:27:03.360Z,6.76
2022-11-28T10:30:00.089Z,6.93
2022-11-28T10:33:03.077Z,7.13
2022-11-28T10:35:46.622Z,7.40
2022-11-28T10:38:16.774Z,7.41
2022-11-28T10:41:37.278Z,7.23
2022-11-28T10:44:23.062Z,7.35
2022-11-28T10:47:07.624Z,7.60
2022-11-28T10:50:32.158Z,7.56
2022-11-28T10:53:47.663Z,7.42
2022-11-28T10:56:28.187Z,7.52
2022-11-28T10:59:12.812Z,7.93
2022-11-28T11:01:43.743Z,7.99
2022-11-28T11:04:22.668Z,7.93
2022-11-28T11:07:20.246Z,9.41
2022-11-28T11:09:50.258Z,8.57
2022-11-28T11:12:27.121Z,7.50
2022-11-28T11:14:54.472Z,7.10
2022-11-28T11:17:39.767Z,7.03
2022-11-28T11:20:27.921Z,7.13
2022-11-28T11:23:15.554Z,7.25
2022-11-28T11:25:56.206Z,6.93
2022-11-28T11:28:50.280Z,7.05
2022-11-28T11:31:23.006Z,7.26
2022-11-28T11:34:05.765Z,7.39
2022-11-28T11:36:36.949Z,7.41
2022-11-28T11:39:13.250Z,7.36
2022-11-28T11:41:44.132Z,7.34
2022-11-28T11:44:34.503Z,7.52
2022-11-28T11:47:07.309Z,7.04
2022-11-28T11:49:35.706Z,7.75
2022-11-28T11:52:15.634Z,7.49
2022-11-28T11:54:58.325Z,7.55
2022-11-28T11:57:37.130Z,7.12
2022-11-28T12:00:13.497Z,6.80
2022-11-28T12:02:59.795Z,6.71
2022-11-28T12:05:46.307Z,6.57
2022-11-28T12:08:31.732Z,6.49
2022-11-28T12:11:34.253Z,6.40
2022-11-28T12:14:31.577Z,6.63
2022-11-28T12:17:47.733Z,6.66
2022-11-28T12:20:38.379Z,6.50
2022-11-28T12:23:42.328Z,6.43
2022-11-28T12:26:33.798Z,6.53
2022-11-28T12:29:43.026Z,6.64
2022-11-28T12:33:07.599Z,6.79
2022-11-28T12:35:51.506Z,7.05
2022-11-28T12:38:37.006Z,6.49
2022-11-28T12:41:17.836Z,6.75
2022-11-28T12:44:11.648Z,6.57
2022-11-28T12:47:06.629Z,6.58
2022-11-28T12:49:54.242Z,6.95
2022-11-28T12:52:33.694Z,6.87
2022-11-28T12:55:31.050Z,6.92
2022-11-28T12:58:20.083Z,6.68
2022-11-28T13:01:08.828Z,6.66
2022-11-28T13:03:59.222Z,6.28
2022-11-28T13:06:53.231Z,6.06
2022-11-28T13:09:38.650Z,5.77
2022-11-28T13:12:30.423Z,5.72
2022-11-28T13:15:08.837Z,5.81
2022-11-28T13:17:57.970Z,5.70
2022-11-28T13:20:55.916Z,5.35
2022-11-28T13:23:36.212Z,5.48
2022-11-28T13:26:19.832Z,5.34
2022-11-28T13:29:26.007Z,5.39
2022-11-28T13:32:31.150Z,5.38
2022-11-28T13:34:59.760Z,5.40
2022-11-28T13:40:30.567Z,5.17
2022-11-28T13:43:08.870Z,4.97
2022-11-28T13:45:45.428Z,4.92
2022-11-28T13:51:33.424Z,5.02
2022-11-28T13:54:19.375Z,4.78
2022-11-28T13:57:08.247Z,4.72
2022-11-28T13:59:36.649Z,4.32
2022-11-28T14:02:49.872Z,4.32
2022-11-28T14:05:36.842Z,4.17
2022-11-28T14:08:07.178Z,4.05
2022-11-28T14:11:11.101Z,3.96
2022-11-28T14:13:56.358Z,3.80
2022-11-28T14:16:56.573Z,3.74
2022-11-28T14:19:39.144Z,3.64
2022-11-28T14:22:38.996Z,3.46
2022-11-28T14:25:28.095Z,3.32
2022-11-28T14:28:01.841Z,3.24
2022-11-28T14:30:40.512Z,3.13
2022-11-28T14:33:31.645Z,2.97
2022-11-28T14:36:21.186Z,2.87
2022-11-28T14:39:16.426Z,2.77
2022-11-28T14:42:06.615Z,2.64
2022-11-28T14:44:54.810Z,2.63
2022-11-28T14:47:39.881Z,2.57
2022-11-28T14:50:08.150Z,2.49
2022-11-28T14:52:40.434Z,2.31
2022-11-28T14:55:12.156Z,2.25
2022-11-28T14:58:02.032Z,2.16
2022-11-28T15:00:47.482Z,2.06
2022-11-28T15:03:27.059Z,1.99
2022-11-28T15:06:21.826Z,1.96
2022-11-28T15:08:57.984Z,1.92
2022-11-28T15:11:58.594Z,1.84
2022-11-28T15:14:29.084Z,1.78
2022-11-28T15:17:02.220Z,1.69
2022-11-28T15:19:45.749Z,1.67
2022-11-28T15:22:48.533Z,1.60
2022-11-28T15:25:35.687Z,1.55
2022-11-28T15:28:20.630Z,1.57
2022-11-28T15:30:53.169Z,1.44
2022-11-28T15:33:22.097Z,1.40
2022-11-28T15:36:28.609Z,1.40
2022-11-28T15:38:57.204Z,1.31
2022-11-28T15:41:27.287Z,1.24
2022-11-28T15:43:56.624Z,1.17
2022-11-28T15:46:33.449Z,1.12
2022-11-28T15:49:05.311Z,1.06
2022-11-28T15:51:37.904Z,1.01
2022-11-28T15:54:42.248Z,1.04
2022-11-28T15:57:23.640Z,1.05
2022-11-28T15:59:51.597Z,1.07
2022-11-28T16:02:26.552Z,1.10
2022-11-28T16:05:06.665Z,0.99
2022-11-28T16:07:40.478Z,1.11
2022-11-28T16:10:22.641Z,1.12
2022-11-28T16:12:50.693Z,1.04
2022-11-28T16:15:20.773Z,1.02
2022-11-28T16:17:48.410Z,1.14
2022-11-28T16:20:29.936Z,1.07
2022-11-28T16:23:08.695Z,1.00
2022-11-28T16:25:36.172Z,0.96
2022-11-28T16:28:03.636Z,1.04
2022-11-28T16:30:42.718Z,1.04
2022-11-28T16:33:43.855Z,1.09
2022-11-28T16:36:15.910Z,1.08
2022-11-28T16:38:44.331Z,0.87
2022-11-28T16:41:26.862Z,0.82
2022-11-28T16:44:02.488Z,0.79
2022-11-28T16:46:39.800Z,0.84
2022-11-28T16:49:19.904Z,0.83
2022-11-28T16:51:47.819Z,0.71
2022-11-28T16:54:31.043Z,0.73
2022-11-28T16:57:10.606Z,0.85
2022-11-28T16:59:38.163Z,0.75
2022-11-28T17:02:20.449Z,0.72
2022-11-28T17:04:50.570Z,0.64
2022-11-28T17:07:24.331Z,0.64
2022-11-28T17:09:51.983Z,0.57
2022-11-28T17:12:38.946Z,0.65
2022-11-28T17:15:14.379Z,0.73
2022-11-28T17:17:41.756Z,0.61
2022-11-28T17:20:10.151Z,0.44
2022-11-28T17:22:44.790Z,0.42
2022-11-28T17:25:18.246Z,0.55
2022-11-28T17:27:48.239Z,0.54
2022-11-28T17:30:18.880Z,0.58
2022-11-28T17:32:49.248Z,0.60
2022-11-28T17:35:23.029Z,0.56
2022-11-28T17:37:50.382Z,0.52
2022-11-28T17:40:33.099Z,0.34
2022-11-28T17:43:01.435Z,0.34
2022-11-28T17:45:33.982Z,0.40
2022-11-28T17:48:01.424Z,0.39
2022-11-28T17:50:28.909Z,0.39
2022-11-28T17:52:56.230Z,0.36
2022-11-28T17:55:23.709Z,0.32
2022-11-28T17:57:51.140Z,0.36
2022-11-28T18:00:18.949Z,0.35
2022-11-28T18:02:46.235Z,0.42
2022-11-28T18:05:13.669Z,0.47
2022-11-28T18:07:41.140Z,0.34
2022-11-28T18:10:11.990Z,0.30
2022-11-28T18:12:39.579Z,0.30
2022-11-28T18:15:10.594Z,0.28
2022-11-28T18:17:39.000Z,0.23
2022-11-28T18:20:08.368Z,0.21
2022-11-28T18:22:35.720Z,0.20
2022-11-28T18:25:03.286Z,0.13
2022-11-28T18:27:30.783Z,0.01
2022-11-28T18:29:58.072Z,-0.03
2022-11-28T18:32:25.768Z,0.04
2022-11-28T18:34:53.070Z,0.19
2022-11-28T18:37:20.414Z,0.14
2022-11-28T18:39:47.997Z,0.22
2022-11-28T18:42:15.485Z,0.27
2022-11-28T18:44:42.854Z,0.19
2022-11-28T18:47:10.062Z,0.06
2022-11-28T18:49:37.475Z,0.14
2022-11-28T18:52:05.153Z,0.01
2022-11-28T18:54:33.395Z,-0.08
2022-11-28T18:57:01.017Z,-0.20
2022-11-28T18:59:28.565Z,-0.06
2022-11-28T19:01:56.202Z,-0.03
2022-11-28T19:04:23.921Z,-0.03
2022-11-28T19:06:51.608Z,-0.07
2022-11-28T19:09:22.297Z,0.02
2022-11-28T19:11:49.696Z,0.02
2022-11-28T19:14:21.357Z,-0.08
2022-11-28T19:16:49.487Z,-0.02
2022-11-28T19:19:18.367Z,-0.22
2022-11-28T19:21:48.692Z,-0.02
2022-11-28T19:24:16.479Z,0.11
2022-11-28T19:26:43.976Z,-0.04
2022-11-28T19:29:11.612Z,-0.13
2022-11-28T19:31:40.654Z,0.15
2022-11-28T19:34:13.717Z,0.34
2022-11-28T19:36:45.262Z,0.90
2022-11-28T19:39:19.225Z,0.84
2022-11-28T19:41:47.587Z,0.71
2022-11-28T19:44:15.793Z,0.49
2022-11-28T19:46:43.424Z,0.21
2022-11-28T19:49:19.115Z,0.14
2022-11-28T19:51:47.928Z,0.25
2022-11-28T19:54:17.081Z,0.34
2022-11-28T19:56:44.785Z,0.44
2022-11-28T19:59:13.141Z,0.42
2022-11-28T20:01:40.831Z,0.31
2022-11-28T20:04:09.041Z,0.25
2022-11-28T20:06:36.513Z,0.24
2022-11-28T20:09:10.804Z,0.08
2022-11-28T20:11:44.058Z,0.03
2022-11-28T20:14:16.406Z,-0.18
2022-11-28T20:16:44.808Z,-0.11
2022-11-28T20:19:15.045Z,0.05
2022-11-28T20:21:46.165Z,-0.05
2022-11-28T20:24:14.559Z,-0.16
2022-11-28T20:26:44.034Z,-0.08
2022-11-28T20:29:19.529Z,-0.10
2022-11-28T20:31:49.759Z,-0.32
2022-11-28T20:34:18.823Z,-0.29
2022-11-28T20:36:53.496Z,-0.17
2022-11-28T20:39:21.456Z,-0.23
2022-11-28T20:41:49.113Z,-0.43
2022-11-28T20:44:17.816Z,-0.39
2022-11-28T20:46:46.481Z,-0.23
2022-11-28T20:49:17.228Z,-0.27
2022-11-28T20:51:44.637Z,-0.43
2022-11-28T20:54:14.169Z,-0.50
2022-11-28T20:57:20.149Z,-0.58
2022-11-28T20:59:30.702Z,-0.60
2022-11-28T21:01:58.077Z,-0.54
2022-11-28T21:04:25.494Z,-0.72
2022-11-28T21:06:52.802Z,-0.70
2022-11-28T21:09:20.706Z,-0.76
2022-11-28T21:11:58.542Z,-0.61
2022-11-28T21:14:28.820Z,-0.48
2022-11-28T21:16:57.895Z,-0.59
2022-11-28T21:19:26.104Z,-0.59
2022-11-28T21:21:54.033Z,-0.45
2022-11-28T21:24:21.873Z,-0.46
2022-11-28T21:26:53.548Z,-0.36
2022-11-28T21:29:23.306Z,-0.19
2022-11-28T21:31:51.118Z,-0.13
2022-11-28T21:34:19.523Z,-0.43
2022-11-28T21:36:48.444Z,-0.38
2022-11-28T21:39:20.139Z,-0.36
2022-11-28T21:41:48.123Z,-0.34
2022-11-28T21:44:15.935Z,-0.38
2022-11-28T21:46:43.488Z,-0.47
2022-11-28T21:49:12.553Z,-0.62
2022-11-28T21:51:40.990Z,-0.74
2022-11-28T21:54:11.186Z,-0.77
2022-11-28T21:56:38.741Z,-0.98
2022-11-28T21:59:06.538Z,-0.84
2022-11-28T22:01:34.069Z,-0.84
2022-11-28T22:04:03.077Z,-0.84
2022-11-28T22:06:31.954Z,-0.90
2022-11-28T22:09:08.333Z,-0.91
2022-11-28T22:11:37.588Z,-0.77
2022-11-28T22:14:05.180Z,-0.64
2022-11-28T22:16:33.568Z,-0.59
2022-11-28T22:19:01.455Z,-0.64
2022-11-28T22:21:51.211Z,-0.65
2022-11-28T22:24:16.497Z,-0.72
2022-11-28T22:26:44.472Z,-0.70
2022-11-28T22:29:12.828Z,-0.74
2022-11-28T22:31:40.566Z,-0.85
2022-11-28T22:34:10.167Z,-0.86
2022-11-28T22:36:38.705Z,-1.01
2022-11-28T22:39:06.354Z,-0.87
2022-11-28T22:41:34.169Z,-0.82
2022-11-28T22:44:04.323Z,-0.73
2022-11-28T22:46:32.925Z,-0.74
2022-11-28T22:49:01.757Z,-0.80
2022-11-28T22:51:31.026Z,-0.89
2022-11-28T22:54:01.217Z,-0.95
2022-11-28T22:56:32.062Z,-0.99
2022-11-28T22:59:00.550Z,-0.91
2022-11-28T23:01:31.454Z,-0.95
2022-11-28T23:04:00.141Z,-1.01
2022-11-28T23:06:32.771Z,-1.02
2022-11-28T23:09:03.723Z,-1.00
2022-11-28T23:11:34.327Z,-1.11
2022-11-28T23:14:03.417Z,-1.09
2022-11-28T23:16:41.291Z,-1.12
2022-11-28T23:19:14.269Z,-1.07
2022-11-28T23:21:44.404Z,-0.99
2022-11-28T23:24:21.766Z,-0.93
2022-11-28T23:26:51.316Z,-0.92
2022-11-28T23:29:19.308Z,-0.97
2022-11-28T23:31:47.312Z,-0.74
2022-11-28T23:34:15.515Z,-0.85
2022-11-28T23:36:47.478Z,-0.89
2022-11-28T23:39:22.164Z,-0.95
2022-11-28T23:41:50.317Z,-1.08
2022-11-28T23:44:19.578Z,-1.18
2022-11-28T23:46:48.343Z,-1.12
2022-11-28T23:49:15.795Z,-1.07
2022-11-28T23:51:43.364Z,-1.08
2022-11-28T23:54:12.357Z,-1.08
2022-11-28T23:56:41.373Z,-1.03
2022-11-28T23:59:10.802Z,-1.04
